createdAt,value
2019-05-28T00:00:55.098Z,14.80
2019-05-28T00:03:23.347Z,14.70
2019-05-28T00:05:51.634Z,14.80
2019-05-28T00:08:19.884Z,14.80
2019-05-28T00:10:48.121Z,14.80
2019-05-28T00:13:16.377Z,14.80
2019-05-28T00:15:44.674Z,14.80
2019-05-28T00:18:12.938Z,14.80
2019-05-28T00:20:41.208Z,14.90
2019-05-28T00:23:29.313Z,14.90
2019-05-28T00:26:03.179Z,14.90
2019-05-28T00:28:31.444Z,14.90
2019-05-28T00:30:59.698Z,14.90
2019-05-28T00:33:27.966Z,14.90
2019-05-28T00:35:56.238Z,14.90
2019-05-28T00:38:24.498Z,14.90
2019-05-28T00:40:52.780Z,14.90
2019-05-28T00:43:21.028Z,15.00
2019-05-28T00:45:49.279Z,14.90
2019-05-28T00:48:17.550Z,15.00
2019-05-28T00:50:45.916Z,15.00
2019-05-28T00:53:14.150Z,15.00
2019-05-28T00:55:42.409Z,15.00
2019-05-28T00:58:10.734Z,15.00
2019-05-28T01:00:46.708Z,15.00
2019-05-28T01:03:14.975Z,15.00
2019-05-28T01:05:43.218Z,15.00
2019-05-28T01:08:11.527Z,14.90
2019-05-28T01:10:39.814Z,14.90
2019-05-28T01:13:08.126Z,14.90
2019-05-28T01:15:36.478Z,14.90
2019-05-28T01:18:05.207Z,14.90
2019-05-28T01:20:33.510Z,14.80
2019-05-28T01:23:01.751Z,14.80
2019-05-28T01:25:30.103Z,14.90
2019-05-28T01:27:58.350Z,14.80
2019-05-28T01:30:26.602Z,14.80
2019-05-28T01:32:54.869Z,14.80
2019-05-28T01:35:23.113Z,14.80
2019-05-28T01:37:51.370Z,14.80
2019-05-28T01:40:23.019Z,14.80
2019-05-28T01:42:49.655Z,14.70
2019-05-28T01:45:19.200Z,14.70
2019-05-28T01:47:47.462Z,14.70
2019-05-28T01:50:15.690Z,14.70
2019-05-28T01:52:43.950Z,14.70
2019-05-28T01:55:12.231Z,14.70
2019-05-28T01:57:40.518Z,14.70
2019-05-28T02:00:09.010Z,14.70
2019-05-28T02:02:37.254Z,14.60
2019-05-28T02:05:07.573Z,14.60
2019-05-28T02:07:35.878Z,14.60
2019-05-28T02:10:05.790Z,14.50
2019-05-28T02:12:34.118Z,14.60
2019-05-28T02:15:02.376Z,14.60
2019-05-28T02:17:30.618Z,14.70
2019-05-28T02:19:58.894Z,14.60
2019-05-28T02:22:27.126Z,14.60
2019-05-28T02:25:13.729Z,14.60
2019-05-28T02:31:06.254Z,14.60
2019-05-28T02:33:36.223Z,14.60
2019-05-28T02:36:04.522Z,14.60
2019-05-28T02:38:32.758Z,14.60
2019-05-28T02:41:00.998Z,14.50
2019-05-28T02:43:29.250Z,14.50
2019-05-28T02:45:57.501Z,14.50
2019-05-28T02:48:25.742Z,14.40
2019-05-28T02:50:59.463Z,14.40
2019-05-28T02:53:28.058Z,14.40
2019-05-28T02:55:56.954Z,14.30
2019-05-28T02:58:35.053Z,14.30
2019-05-28T03:01:03.825Z,14.30
2019-05-28T03:06:00.246Z,14.00
2019-05-28T03:08:30.228Z,14.20
2019-05-28T03:11:03.229Z,14.10
2019-05-28T03:13:28.575Z,14.20
2019-05-28T03:15:59.555Z,14.20
2019-05-28T03:28:03.889Z,14.10
2019-05-28T03:33:46.440Z,14.00
2019-05-28T03:36:14.929Z,14.00
2019-05-28T03:38:44.216Z,14.10
2019-05-28T03:41:20.127Z,14.10
2019-05-28T03:46:35.965Z,14.10
2019-05-28T03:49:36.080Z,14.00
2019-05-28T03:52:06.934Z,14.00
2019-05-28T03:54:37.232Z,14.00
2019-05-28T03:57:05.260Z,14.10
2019-05-28T03:59:33.491Z,14.10
2019-05-28T04:02:02.007Z,14.00
2019-05-28T04:04:30.370Z,14.00
2019-05-28T04:06:58.641Z,14.00
2019-05-28T04:09:26.896Z,14.00
2019-05-28T04:11:55.142Z,14.10
2019-05-28T04:14:23.402Z,14.00
2019-05-28T04:16:51.705Z,14.10
2019-05-28T04:19:20.015Z,14.10
2019-05-28T04:21:48.646Z,14.10
2019-05-28T04:24:16.938Z,14.10
2019-05-28T04:26:45.250Z,14.20
2019-05-28T04:29:13.507Z,14.20
2019-05-28T04:31:41.778Z,14.20
2019-05-28T04:34:10.017Z,14.30
2019-05-28T04:36:38.309Z,14.30
2019-05-28T04:39:08.069Z,14.30
2019-05-28T04:41:36.404Z,14.30
2019-05-28T04:44:04.702Z,14.20
2019-05-28T04:46:33.002Z,14.20
2019-05-28T04:49:01.239Z,14.30
2019-05-28T04:51:29.493Z,14.30
2019-05-28T04:53:57.723Z,14.30
2019-05-28T04:56:25.982Z,14.30
2019-05-28T04:58:54.227Z,14.30
2019-05-28T05:01:22.502Z,14.30
2019-05-28T05:03:50.746Z,14.40
2019-05-28T05:06:18.983Z,14.40
2019-05-28T05:08:47.246Z,14.30
2019-05-28T05:11:15.487Z,14.40
2019-05-28T05:13:43.744Z,14.40
2019-05-28T05:16:11.992Z,14.40
2019-05-28T05:18:40.251Z,14.40
2019-05-28T05:21:08.543Z,14.40
2019-05-28T05:23:36.797Z,14.40
2019-05-28T05:26:05.031Z,14.40
2019-05-28T05:28:33.297Z,14.40
2019-05-28T05:31:01.561Z,14.40
2019-05-28T05:33:29.818Z,14.50
2019-05-28T05:35:58.070Z,14.80
2019-05-28T05:38:26.349Z,14.50
2019-05-28T05:40:54.646Z,14.50
2019-05-28T05:43:22.954Z,14.50
2019-05-28T05:45:51.219Z,14.50
2019-05-28T05:48:21.807Z,14.50
2019-05-28T05:50:50.121Z,14.50
2019-05-28T05:53:18.357Z,14.50
2019-05-28T05:55:46.614Z,14.50
2019-05-28T05:58:14.859Z,14.50
2019-05-28T06:00:43.205Z,14.60
2019-05-28T06:03:11.513Z,14.70
2019-05-28T06:05:39.752Z,14.60
2019-05-28T06:08:08.091Z,14.70
2019-05-28T06:10:36.367Z,14.70
2019-05-28T06:13:04.604Z,14.80
2019-05-28T06:15:32.865Z,14.80
2019-05-28T06:18:01.102Z,14.70
2019-05-28T06:20:29.335Z,14.70
2019-05-28T06:22:57.587Z,14.70
2019-05-28T06:25:25.997Z,14.70
2019-05-28T06:27:54.264Z,14.70
2019-05-28T06:30:22.547Z,14.70
2019-05-28T06:32:50.819Z,14.70
2019-05-28T06:35:19.118Z,14.80
2019-05-28T06:37:47.356Z,14.80
2019-05-28T06:40:16.371Z,14.80
2019-05-28T06:42:44.614Z,14.80
2019-05-28T06:45:12.856Z,14.80
2019-05-28T06:47:44.966Z,14.80
2019-05-28T06:50:12.199Z,14.80
2019-05-28T06:52:40.944Z,14.80
2019-05-28T06:55:09.204Z,14.90
2019-05-28T06:57:37.453Z,14.90
2019-05-28T07:00:06.106Z,14.90
2019-05-28T07:02:34.378Z,14.90
2019-05-28T07:05:02.695Z,15.00
2019-05-28T07:07:30.994Z,15.00
2019-05-28T07:09:59.255Z,15.10
2019-05-28T07:12:27.575Z,15.10
2019-05-28T07:14:56.070Z,15.10
2019-05-28T07:17:24.354Z,15.10
2019-05-28T07:19:52.595Z,15.10
2019-05-28T07:22:20.855Z,15.10
2019-05-28T07:24:49.091Z,15.10
2019-05-28T07:27:17.347Z,15.10
2019-05-28T07:29:45.581Z,15.10
2019-05-28T07:32:13.827Z,15.10
2019-05-28T07:34:42.082Z,15.10
2019-05-28T07:37:10.597Z,15.10
2019-05-28T07:39:38.847Z,15.10
2019-05-28T07:42:07.121Z,15.30
2019-05-28T07:44:35.383Z,15.30
2019-05-28T07:47:03.631Z,15.40
2019-05-28T07:49:31.886Z,15.50
2019-05-28T07:52:00.118Z,15.50
2019-05-28T07:54:28.389Z,15.50
2019-05-28T07:56:56.700Z,15.50
2019-05-28T07:59:24.955Z,15.60
2019-05-28T08:01:53.195Z,15.60
2019-05-28T08:04:21.447Z,15.60
2019-05-28T08:06:54.744Z,15.60
2019-05-28T08:09:19.658Z,15.60
2019-05-28T08:11:47.915Z,15.70
2019-05-28T08:14:16.172Z,15.70
2019-05-28T08:16:52.258Z,15.70
2019-05-28T08:19:14.362Z,15.70
2019-05-28T08:21:42.620Z,15.70
2019-05-28T08:24:10.852Z,15.80
2019-05-28T08:26:39.098Z,15.90
2019-05-28T08:29:07.362Z,15.90
2019-05-28T08:31:35.698Z,15.90
2019-05-28T08:34:04.043Z,16.00
2019-05-28T08:36:32.291Z,16.00
2019-05-28T08:39:00.554Z,16.00
2019-05-28T08:41:28.825Z,16.00
2019-05-28T08:43:57.082Z,16.00
2019-05-28T08:46:25.325Z,16.00
2019-05-28T08:48:53.585Z,15.90
2019-05-28T08:51:21.890Z,15.80
2019-05-28T08:53:50.123Z,15.80
2019-05-28T08:56:18.366Z,15.70
2019-05-28T08:58:46.617Z,15.70
2019-05-28T09:01:14.849Z,15.70
2019-05-28T09:03:43.108Z,15.60
2019-05-28T09:06:11.338Z,15.70
2019-05-28T09:08:40.370Z,15.70
2019-05-28T09:11:09.267Z,15.70
2019-05-28T09:13:37.749Z,15.70
2019-05-28T09:16:06.038Z,15.80
2019-05-28T09:18:34.273Z,15.80
2019-05-28T09:21:02.585Z,15.80
2019-05-28T09:23:30.869Z,15.80
2019-05-28T09:25:59.123Z,15.80
2019-05-28T09:28:30.682Z,15.80
2019-05-28T09:30:57.335Z,15.80
2019-05-28T09:33:25.562Z,15.70
2019-05-28T09:36:07.410Z,15.70
2019-05-28T09:38:23.782Z,15.70
2019-05-28T09:40:52.025Z,15.70
2019-05-28T09:43:20.267Z,15.80
2019-05-28T09:45:48.542Z,15.80
2019-05-28T09:48:16.842Z,15.80
2019-05-28T09:50:45.161Z,15.80
2019-05-28T09:53:13.466Z,15.80
2019-05-28T09:55:41.739Z,15.80
2019-05-28T09:58:10.006Z,15.80
2019-05-28T10:00:38.611Z,15.90
2019-05-28T10:03:06.970Z,15.90
2019-05-28T10:05:35.211Z,15.90
2019-05-28T10:08:03.517Z,15.90
2019-05-28T10:10:31.798Z,16.00
2019-05-28T10:13:00.043Z,16.00
2019-05-28T10:15:28.318Z,16.00
2019-05-28T10:17:56.578Z,16.00
2019-05-28T10:20:24.858Z,16.00
2019-05-28T10:22:53.159Z,16.00
2019-05-28T10:25:21.397Z,15.90
2019-05-28T10:28:00.791Z,15.90
2019-05-28T10:30:19.598Z,15.90
2019-05-28T10:32:47.868Z,15.90
2019-05-28T10:35:16.185Z,15.90
2019-05-28T10:37:44.478Z,15.90
2019-05-28T10:40:12.718Z,15.90
2019-05-28T10:42:40.977Z,15.90
2019-05-28T10:45:09.561Z,15.90
2019-05-28T10:47:37.855Z,16.00
2019-05-28T10:50:06.228Z,16.00
2019-05-28T10:52:34.513Z,16.00
2019-05-28T10:55:03.174Z,16.10
2019-05-28T10:57:31.476Z,16.10
2019-05-28T10:59:59.726Z,16.00
2019-05-28T11:02:27.977Z,16.10
2019-05-28T11:04:56.404Z,16.10
2019-05-28T11:07:24.745Z,16.10
2019-05-28T11:09:53.078Z,16.10
2019-05-28T11:12:21.323Z,16.20
2019-05-28T11:14:51.205Z,16.20
2019-05-28T11:17:19.443Z,16.20
2019-05-28T11:19:49.087Z,16.20
2019-05-28T11:22:17.310Z,16.20
2019-05-28T11:24:45.566Z,16.30
2019-05-28T11:27:13.813Z,16.30
2019-05-28T11:29:42.178Z,16.40
2019-05-28T11:32:10.447Z,16.40
2019-05-28T11:34:38.691Z,16.50
2019-05-28T11:37:10.145Z,16.50
2019-05-28T11:39:38.687Z,16.50
2019-05-28T11:42:06.946Z,16.50
2019-05-28T11:44:35.191Z,16.60
2019-05-28T11:47:03.459Z,16.60
2019-05-28T11:49:36.339Z,16.70
2019-05-28T11:52:07.722Z,16.70
2019-05-28T11:54:38.130Z,16.70
2019-05-28T11:57:10.600Z,16.60
2019-05-28T11:59:38.918Z,16.60
2019-05-28T12:02:07.166Z,16.60
2019-05-28T12:04:35.416Z,16.60
2019-05-28T12:07:03.758Z,16.60
2019-05-28T12:09:32.007Z,16.60
2019-05-28T12:12:00.262Z,16.60
2019-05-28T12:14:30.720Z,16.50
2019-05-28T12:16:59.163Z,16.40
2019-05-28T12:19:27.636Z,16.50
2019-05-28T12:21:56.188Z,16.50
2019-05-28T12:24:28.344Z,16.50
2019-05-28T12:26:54.869Z,16.50
2019-05-28T12:29:23.465Z,16.40
2019-05-28T12:31:51.892Z,16.40
2019-05-28T12:34:20.398Z,16.40
2019-05-28T12:36:48.857Z,16.50
2019-05-28T12:39:17.133Z,16.50
2019-05-28T12:42:00.816Z,16.60
2019-05-28T12:44:17.474Z,16.70
2019-05-28T12:46:45.334Z,16.70
2019-05-28T12:49:13.586Z,16.70
2019-05-28T12:51:41.829Z,16.80
2019-05-28T12:54:10.100Z,16.80
2019-05-28T12:56:38.353Z,16.80
2019-05-28T12:59:06.586Z,16.90
2019-05-28T13:01:34.880Z,16.90
2019-05-28T13:04:03.383Z,16.90
2019-05-28T13:06:31.863Z,16.90
2019-05-28T13:09:00.100Z,16.90
2019-05-28T13:11:28.358Z,16.80
2019-05-28T13:13:56.597Z,16.90
2019-05-28T13:16:24.863Z,16.90
2019-05-28T13:18:53.127Z,17.00
2019-05-28T13:21:21.360Z,17.00
2019-05-28T13:23:49.621Z,17.00
2019-05-28T13:26:17.863Z,17.00
2019-05-28T13:28:46.135Z,16.90
2019-05-28T13:31:14.373Z,16.80
2019-05-28T13:33:42.638Z,16.80
2019-05-28T13:36:10.911Z,16.70
2019-05-28T13:38:42.526Z,16.60
2019-05-28T13:41:09.111Z,16.50
2019-05-28T13:43:37.367Z,16.30
2019-05-28T13:46:05.688Z,16.00
2019-05-28T13:48:33.940Z,15.80
2019-05-28T13:51:02.167Z,15.70
2019-05-28T13:53:30.443Z,15.60
2019-05-28T13:55:58.706Z,15.50
2019-05-28T13:58:26.944Z,15.50
2019-05-28T14:00:55.580Z,15.50
2019-05-28T14:03:23.878Z,15.50
2019-05-28T14:05:52.127Z,15.40
2019-05-28T14:08:20.372Z,15.50
2019-05-28T14:10:48.626Z,15.50
2019-05-28T14:13:16.881Z,15.50
2019-05-28T14:15:45.130Z,15.50
2019-05-28T14:18:13.363Z,15.50
2019-05-28T14:20:43.736Z,15.50
2019-05-28T14:23:11.973Z,15.50
2019-05-28T14:25:40.275Z,15.50
2019-05-28T14:28:08.532Z,15.40
2019-05-28T14:30:36.762Z,15.50
2019-05-28T14:33:05.123Z,15.50
2019-05-28T14:35:33.372Z,15.50
2019-05-28T14:38:01.736Z,15.50
2019-05-28T14:40:30.091Z,15.50
2019-05-28T14:42:58.363Z,15.50
2019-05-28T14:45:27.688Z,15.50
2019-05-28T14:47:56.470Z,15.50
2019-05-28T14:50:24.727Z,15.50
2019-05-28T14:52:52.988Z,15.50
2019-05-28T14:55:21.263Z,15.40
2019-05-28T14:57:52.344Z,15.40
2019-05-28T15:00:20.585Z,15.40
2019-05-28T15:02:48.837Z,15.40
2019-05-28T15:05:17.091Z,15.40
2019-05-28T15:07:45.399Z,15.40
2019-05-28T15:10:14.289Z,15.40
2019-05-28T15:12:42.645Z,15.40
2019-05-28T15:15:11.966Z,15.40
2019-05-28T15:17:40.239Z,15.40
2019-05-28T15:20:08.712Z,15.40
2019-05-28T15:22:37.382Z,15.40
2019-05-28T15:25:08.477Z,15.40
2019-05-28T15:27:36.758Z,15.30
2019-05-28T15:30:06.163Z,15.40
2019-05-28T15:32:34.447Z,15.40
2019-05-28T15:35:02.689Z,15.50
2019-05-28T15:37:30.945Z,15.50
2019-05-28T15:39:59.179Z,15.50
2019-05-28T15:42:27.422Z,15.50
2019-05-28T15:44:55.673Z,15.50
2019-05-28T15:47:23.901Z,15.50
2019-05-28T15:49:52.148Z,15.50
2019-05-28T15:52:21.184Z,15.50
2019-05-28T15:54:49.431Z,15.50
2019-05-28T15:57:17.711Z,15.50
2019-05-28T15:59:45.952Z,15.40
2019-05-28T16:02:14.187Z,15.40
2019-05-28T16:04:42.579Z,15.30
2019-05-28T16:07:11.059Z,15.30
2019-05-28T16:09:55.181Z,15.20
2019-05-28T16:12:09.275Z,15.20
2019-05-28T16:14:37.567Z,15.20
2019-05-28T16:17:05.907Z,15.20
2019-05-28T16:19:34.163Z,15.20
2019-05-28T16:22:02.465Z,15.20
2019-05-28T16:24:30.759Z,15.10
2019-05-28T16:26:58.994Z,15.10
2019-05-28T16:29:27.238Z,15.10
2019-05-28T16:31:55.572Z,15.00
2019-05-28T16:34:23.813Z,15.00
2019-05-28T16:36:53.685Z,15.00
2019-05-28T16:39:21.940Z,15.00
2019-05-28T16:41:51.845Z,15.00
2019-05-28T16:44:20.217Z,15.00
2019-05-28T16:46:48.486Z,15.00
2019-05-28T16:49:19.696Z,14.90
2019-05-28T16:51:49.581Z,14.90
2019-05-28T16:54:19.833Z,14.80
2019-05-28T16:56:49.815Z,14.90
2019-05-28T16:59:18.060Z,14.90
2019-05-28T17:01:46.338Z,14.90
2019-05-28T17:04:14.605Z,14.80
2019-05-28T17:06:42.998Z,14.80
2019-05-28T17:09:11.244Z,14.70
2019-05-28T17:11:39.539Z,14.70
2019-05-28T17:14:07.854Z,14.70
2019-05-28T17:16:36.340Z,14.70
2019-05-28T17:19:04.931Z,14.60
2019-05-28T17:21:33.198Z,14.60
2019-05-28T17:24:01.466Z,14.60
2019-05-28T17:26:29.716Z,14.60
2019-05-28T17:28:57.999Z,14.50
2019-05-28T17:31:26.258Z,14.50
2019-05-28T17:33:54.533Z,14.40
2019-05-28T20:17:24.157Z,12.40
2019-05-28T20:19:52.964Z,12.40
2019-05-28T20:22:22.479Z,12.30
2019-05-28T20:24:52.590Z,12.30
2019-05-28T20:27:20.806Z,12.30
2019-05-28T20:29:51.949Z,12.30
2019-05-28T20:32:20.204Z,12.30
2019-05-28T20:34:48.548Z,12.30
2019-05-28T20:37:16.833Z,12.30
2019-05-28T20:39:45.092Z,12.30
2019-05-28T20:42:24.418Z,12.20
2019-05-28T20:44:43.804Z,12.20
2019-05-28T20:47:12.057Z,12.20
2019-05-28T20:49:40.308Z,12.30
2019-05-28T20:52:10.264Z,12.30
2019-05-28T20:54:38.500Z,12.20
2019-05-28T20:57:06.745Z,12.20
2019-05-28T20:59:35.009Z,12.20
2019-05-28T21:02:03.268Z,12.20
2019-05-28T21:04:31.515Z,12.30
2019-05-28T21:06:59.758Z,12.30
2019-05-28T21:09:28.029Z,12.30
2019-05-28T21:11:56.680Z,12.30
2019-05-28T21:14:24.979Z,12.40
2019-05-28T21:16:53.279Z,12.40
2019-05-28T21:19:21.594Z,12.50
2019-05-28T21:21:49.831Z,12.50
2019-05-28T21:24:18.083Z,12.60
2019-05-28T21:26:46.347Z,12.60
2019-05-28T21:29:14.596Z,12.60
2019-05-28T21:31:42.838Z,12.60
2019-05-28T21:34:11.128Z,12.60
2019-05-28T21:36:39.359Z,12.70
2019-05-28T21:39:07.987Z,12.70
2019-05-28T21:41:36.363Z,12.70
2019-05-28T21:44:05.120Z,12.70
2019-05-28T21:46:33.416Z,12.70
2019-05-28T21:49:02.970Z,12.70
2019-05-28T21:51:31.409Z,12.70
2019-05-28T21:53:59.669Z,12.70
2019-05-28T21:56:27.947Z,12.70
2019-05-28T21:58:57.407Z,12.70
2019-05-28T22:01:26.795Z,12.70
2019-05-28T22:03:55.242Z,12.70
2019-05-28T22:06:23.617Z,12.60
2019-05-28T22:08:51.899Z,12.60
2019-05-28T22:11:20.165Z,12.50
2019-05-28T22:13:48.408Z,12.50
2019-05-28T22:16:16.680Z,12.50
2019-05-28T22:18:44.974Z,12.50
2019-05-28T22:21:13.254Z,12.50
2019-05-28T22:26:28.971Z,12.50
2019-05-28T22:28:57.371Z,12.40
2019-05-28T22:31:27.438Z,12.40
2019-05-28T22:33:56.793Z,12.40
2019-05-28T22:36:27.033Z,12.30
2019-05-28T22:39:06.850Z,12.30
2019-05-28T22:41:40.384Z,12.30
2019-05-28T22:44:08.651Z,12.30
2019-05-28T22:46:36.895Z,12.30
2019-05-28T22:49:05.451Z,12.30
2019-05-28T22:51:39.399Z,12.30
2019-05-28T22:54:10.575Z,12.30
2019-05-28T22:56:43.892Z,12.30
2019-05-28T22:59:12.157Z,12.30
2019-05-28T23:01:40.393Z,12.30
2019-05-28T23:04:09.197Z,12.30
2019-05-28T23:06:37.752Z,12.20
2019-05-28T23:09:07.772Z,12.30
2019-05-28T23:11:36.209Z,12.30
2019-05-28T23:14:04.481Z,12.30
2019-05-28T23:16:32.734Z,12.20
2019-05-28T23:19:00.993Z,12.30
2019-05-28T23:21:29.242Z,12.30
2019-05-28T23:23:57.492Z,12.20
2019-05-28T23:26:25.747Z,12.20
2019-05-28T23:28:53.997Z,12.10
2019-05-28T23:31:22.275Z,12.10
2019-05-28T23:33:50.524Z,12.10
2019-05-28T23:36:18.792Z,12.10
2019-05-28T23:38:47.015Z,12.10
2019-05-28T23:41:15.279Z,12.20
2019-05-28T23:43:43.510Z,12.20
2019-05-28T23:46:12.092Z,12.20
2019-05-28T23:48:40.398Z,12.10
2019-05-28T23:51:08.662Z,12.20
2019-05-28T23:53:36.936Z,12.20
2019-05-28T23:56:05.579Z,12.10
2019-05-28T23:58:34.028Z,12.10
